sensor_id;sensor_type;location;lat;lon;timestamp;temperature;humidity
54680;DHT22;40578;53.178;5.846;2022-10-16T00:01:08;12.60;99.90
54680;DHT22;40578;53.178;5.846;2022-10-16T00:03:34;12.60;99.90
54680;DHT22;40578;53.178;5.846;2022-10-16T00:06:00;12.70;99.90
54680;DHT22;40578;53.178;5.846;2022-10-16T00:08:27;12.00;99.90
54680;DHT22;40578;53.178;5.846;2022-10-16T00:10:58;12.50;99.90
54680;DHT22;40578;53.178;5.846;2022-10-16T00:13:24;11.90;99.90
54680;DHT22;40578;53.178;5.846;2022-10-16T00:15:49;12.50;99.90
54680;DHT22;40578;53.178;5.846;2022-10-16T00:18:15;13.30;99.90
54680;DHT22;40578;53.178;5.846;2022-10-16T00:20:42;12.50;99.90
54680;DHT22;40578;53.178;5.846;2022-10-16T00:23:07;12.00;99.90
54680;DHT22;40578;53.178;5.846;2022-10-16T00:25:33;12.60;99.90
54680;DHT22;40578;53.178;5.846;2022-10-16T00:28:00;13.30;99.90
54680;DHT22;40578;53.178;5.846;2022-10-16T00:30:26;12.50;99.90
54680;DHT22;40578;53.178;5.846;2022-10-16T00:32:53;12.60;99.90
54680;DHT22;40578;53.178;5.846;2022-10-16T00:35:19;12.40;99.90
54680;DHT22;40578;53.178;5.846;2022-10-16T00:37:44;12.50;99.90
54680;DHT22;40578;53.178;5.846;2022-10-16T00:40:10;12.30;99.90
54680;DHT22;40578;53.178;5.846;2022-10-16T00:42:36;12.50;99.90
54680;DHT22;40578;53.178;5.846;2022-10-16T00:45:01;12.60;99.90
54680;DHT22;40578;53.178;5.846;2022-10-16T00:50:00;12.30;99.90
54680;DHT22;40578;53.178;5.846;2022-10-16T00:52:27;12.30;99.90
54680;DHT22;40578;53.178;5.846;2022-10-16T00:54:54;12.40;99.90
54680;DHT22;40578;53.178;5.846;2022-10-16T00:57:21;12.60;99.90
54680;DHT22;40578;53.178;5.846;2022-10-16T00:59:47;12.30;99.90
54680;DHT22;40578;53.178;5.846;2022-10-16T01:02:14;12.60;99.90
54680;DHT22;40578;53.178;5.846;2022-10-16T01:04:44;12.20;99.90
54680;DHT22;40578;53.178;5.846;2022-10-16T01:07:24;12.40;99.90
54680;DHT22;40578;53.178;5.846;2022-10-16T01:13:10;12.80;99.90
54680;DHT22;40578;53.178;5.846;2022-10-16T01:15:46;12.40;99.90
54680;DHT22;40578;53.178;5.846;2022-10-16T01:21:03;12.50;99.90
54680;DHT22;40578;53.178;5.846;2022-10-16T01:23:43;12.90;99.90
54680;DHT22;40578;53.178;5.846;2022-10-16T01:29:26;12.70;99.90
54680;DHT22;40578;53.178;5.846;2022-10-16T01:32:00;13.00;99.90
54680;DHT22;40578;53.178;5.846;2022-10-16T01:34:52;12.90;99.90
54680;DHT22;40578;53.178;5.846;2022-10-16T01:37:36;12.70;99.90
54680;DHT22;40578;53.178;5.846;2022-10-16T01:40:07;12.80;99.90
54680;DHT22;40578;53.178;5.846;2022-10-16T01:42:41;12.90;99.90
54680;DHT22;40578;53.178;5.846;2022-10-16T01:45:08;13.00;99.90
54680;DHT22;40578;53.178;5.846;2022-10-16T01:47:37;12.80;99.90
54680;DHT22;40578;53.178;5.846;2022-10-16T01:50:04;12.90;99.90
54680;DHT22;40578;53.178;5.846;2022-10-16T01:52:33;12.70;99.90
54680;DHT22;40578;53.178;5.846;2022-10-16T01:55:03;12.60;99.90
54680;DHT22;40578;53.178;5.846;2022-10-16T01:57:30;12.80;99.90
54680;DHT22;40578;53.178;5.846;2022-10-16T02:00:00;12.80;99.90
54680;DHT22;40578;53.178;5.846;2022-10-16T02:02:28;12.40;99.90
54680;DHT22;40578;53.178;5.846;2022-10-16T02:05:04;12.80;99.90
54680;DHT22;40578;53.178;5.846;2022-10-16T02:07:30;12.50;99.90
54680;DHT22;40578;53.178;5.846;2022-10-16T02:09:56;12.70;99.90
54680;DHT22;40578;53.178;5.846;2022-10-16T02:12:31;12.40;99.90
54680;DHT22;40578;53.178;5.846;2022-10-16T02:14:58;12.70;99.90
54680;DHT22;40578;53.178;5.846;2022-10-16T02:17:24;12.70;99.90
54680;DHT22;40578;53.178;5.846;2022-10-16T02:19:53;12.30;99.90
54680;DHT22;40578;53.178;5.846;2022-10-16T02:22:43;12.70;99.90
54680;DHT22;40578;53.178;5.846;2022-10-16T02:25:25;12.40;99.90
54680;DHT22;40578;53.178;5.846;2022-10-16T02:28:17;12.30;99.90
54680;DHT22;40578;53.178;5.846;2022-10-16T02:30:47;12.40;99.90
54680;DHT22;40578;53.178;5.846;2022-10-16T02:33:15;12.70;99.90
54680;DHT22;40578;53.178;5.846;2022-10-16T02:35:43;12.70;99.90
54680;DHT22;40578;53.178;5.846;2022-10-16T02:38:11;12.70;99.90
54680;DHT22;40578;53.178;5.846;2022-10-16T02:40:37;13.60;99.90
54680;DHT22;40578;53.178;5.846;2022-10-16T02:43:04;12.50;99.90
54680;DHT22;40578;53.178;5.846;2022-10-16T02:45:30;12.40;99.90
54680;DHT22;40578;53.178;5.846;2022-10-16T02:47:56;12.70;99.90
54680;DHT22;40578;53.178;5.846;2022-10-16T02:50:22;12.70;99.90
54680;DHT22;40578;53.178;5.846;2022-10-16T02:52:48;12.40;99.90
54680;DHT22;40578;53.178;5.846;2022-10-16T02:55:14;12.70;99.90
54680;DHT22;40578;53.178;5.846;2022-10-16T02:57:39;12.40;99.90
54680;DHT22;40578;53.178;5.846;2022-10-16T03:00:10;12.60;99.90
54680;DHT22;40578;53.178;5.846;2022-10-16T03:02:37;12.30;99.90
54680;DHT22;40578;53.178;5.846;2022-10-16T03:05:03;12.50;99.90
54680;DHT22;40578;53.178;5.846;2022-10-16T03:07:29;12.40;99.90
54680;DHT22;40578;53.178;5.846;2022-10-16T03:09:55;12.40;99.90
54680;DHT22;40578;53.178;5.846;2022-10-16T03:12:21;12.30;99.90
54680;DHT22;40578;53.178;5.846;2022-10-16T03:14:47;12.20;99.90
54680;DHT22;40578;53.178;5.846;2022-10-16T03:17:12;12.30;99.90
54680;DHT22;40578;53.178;5.846;2022-10-16T03:19:39;12.40;99.90
54680;DHT22;40578;53.178;5.846;2022-10-16T03:22:04;12.10;99.90
54680;DHT22;40578;53.178;5.846;2022-10-16T03:24:30;12.20;99.90
54680;DHT22;40578;53.178;5.846;2022-10-16T03:26:56;11.90;99.90
54680;DHT22;40578;53.178;5.846;2022-10-16T03:29:23;12.10;99.90
54680;DHT22;40578;53.178;5.846;2022-10-16T03:31:48;12.00;99.90
54680;DHT22;40578;53.178;5.846;2022-10-16T03:34:15;12.10;99.90
54680;DHT22;40578;53.178;5.846;2022-10-16T03:36:42;11.90;99.90
54680;DHT22;40578;53.178;5.846;2022-10-16T03:39:08;12.00;99.90
54680;DHT22;40578;53.178;5.846;2022-10-16T03:41:34;12.10;99.90
54680;DHT22;40578;53.178;5.846;2022-10-16T03:43:59;12.40;99.90
54680;DHT22;40578;53.178;5.846;2022-10-16T03:46:25;12.20;99.90
54680;DHT22;40578;53.178;5.846;2022-10-16T03:48:51;12.50;99.90
54680;DHT22;40578;53.178;5.846;2022-10-16T03:51:16;12.30;99.90
54680;DHT22;40578;53.178;5.846;2022-10-16T03:53:43;12.20;99.90
54680;DHT22;40578;53.178;5.846;2022-10-16T03:56:09;12.50;99.90
54680;DHT22;40578;53.178;5.846;2022-10-16T03:58:35;12.30;99.90
54680;DHT22;40578;53.178;5.846;2022-10-16T04:01:01;12.30;99.90
54680;DHT22;40578;53.178;5.846;2022-10-16T04:03:26;12.40;99.90
54680;DHT22;40578;53.178;5.846;2022-10-16T04:05:52;12.60;99.90
54680;DHT22;40578;53.178;5.846;2022-10-16T04:08:18;12.50;99.90
54680;DHT22;40578;53.178;5.846;2022-10-16T04:10:44;12.40;99.90
54680;DHT22;40578;53.178;5.846;2022-10-16T04:13:10;12.50;99.90
54680;DHT22;40578;53.178;5.846;2022-10-16T04:15:36;12.60;99.90
54680;DHT22;40578;53.178;5.846;2022-10-16T04:18:02;13.00;99.90
54680;DHT22;40578;53.178;5.846;2022-10-16T04:20:27;12.80;99.90
54680;DHT22;40578;53.178;5.846;2022-10-16T04:22:53;12.40;99.90
54680;DHT22;40578;53.178;5.846;2022-10-16T04:25:19;12.70;99.90
54680;DHT22;40578;53.178;5.846;2022-10-16T04:27:44;12.70;99.90
54680;DHT22;40578;53.178;5.846;2022-10-16T04:30:10;12.80;99.90
54680;DHT22;40578;53.178;5.846;2022-10-16T04:32:36;12.50;99.90
54680;DHT22;40578;53.178;5.846;2022-10-16T04:35:02;12.60;99.90
54680;DHT22;40578;53.178;5.846;2022-10-16T04:37:28;12.40;99.90
54680;DHT22;40578;53.178;5.846;2022-10-16T04:39:54;12.80;99.90
54680;DHT22;40578;53.178;5.846;2022-10-16T04:42:20;12.70;99.90
54680;DHT22;40578;53.178;5.846;2022-10-16T04:44:46;12.30;99.90
54680;DHT22;40578;53.178;5.846;2022-10-16T04:47:12;12.20;99.90
54680;DHT22;40578;53.178;5.846;2022-10-16T04:49:37;11.30;99.90
54680;DHT22;40578;53.178;5.846;2022-10-16T04:52:03;12.10;99.90
54680;DHT22;40578;53.178;5.846;2022-10-16T04:54:29;12.50;99.90
54680;DHT22;40578;53.178;5.846;2022-10-16T04:56:54;12.10;99.90
54680;DHT22;40578;53.178;5.846;2022-10-16T04:59:20;12.60;99.90
54680;DHT22;40578;53.178;5.846;2022-10-16T05:01:46;12.10;99.90
54680;DHT22;40578;53.178;5.846;2022-10-16T05:04:12;12.70;99.90
54680;DHT22;40578;53.178;5.846;2022-10-16T05:06:38;12.50;99.90
54680;DHT22;40578;53.178;5.846;2022-10-16T05:09:05;12.60;99.90
54680;DHT22;40578;53.178;5.846;2022-10-16T05:11:31;12.60;99.90
54680;DHT22;40578;53.178;5.846;2022-10-16T05:13:56;12.20;99.90
54680;DHT22;40578;53.178;5.846;2022-10-16T05:16:22;12.10;99.90
54680;DHT22;40578;53.178;5.846;2022-10-16T05:18:48;12.10;99.90
54680;DHT22;40578;53.178;5.846;2022-10-16T05:21:13;12.10;99.90
54680;DHT22;40578;53.178;5.846;2022-10-16T05:23:39;12.60;99.90
54680;DHT22;40578;53.178;5.846;2022-10-16T05:26:05;12.80;99.90
54680;DHT22;40578;53.178;5.846;2022-10-16T05:28:31;12.40;99.90
54680;DHT22;40578;53.178;5.846;2022-10-16T05:30:57;12.40;99.90
54680;DHT22;40578;53.178;5.846;2022-10-16T05:33:24;12.20;99.90
54680;DHT22;40578;53.178;5.846;2022-10-16T05:35:51;12.10;99.90
54680;DHT22;40578;53.178;5.846;2022-10-16T05:38:18;12.40;99.90
54680;DHT22;40578;53.178;5.846;2022-10-16T05:40:50;12.50;99.90
54680;DHT22;40578;53.178;5.846;2022-10-16T05:43:16;12.30;99.90
54680;DHT22;40578;53.178;5.846;2022-10-16T05:45:41;12.50;99.90
54680;DHT22;40578;53.178;5.846;2022-10-16T05:48:07;12.00;99.90
54680;DHT22;40578;53.178;5.846;2022-10-16T05:50:32;12.20;99.90
54680;DHT22;40578;53.178;5.846;2022-10-16T05:52:58;12.40;99.90
54680;DHT22;40578;53.178;5.846;2022-10-16T05:55:25;12.50;99.90
54680;DHT22;40578;53.178;5.846;2022-10-16T05:57:53;12.50;99.90
54680;DHT22;40578;53.178;5.846;2022-10-16T06:00:19;12.40;99.90
54680;DHT22;40578;53.178;5.846;2022-10-16T06:02:44;12.90;99.90
54680;DHT22;40578;53.178;5.846;2022-10-16T06:05:10;12.30;99.90
54680;DHT22;40578;53.178;5.846;2022-10-16T06:07:36;12.50;99.90
54680;DHT22;40578;53.178;5.846;2022-10-16T06:10:03;12.70;99.90
54680;DHT22;40578;53.178;5.846;2022-10-16T06:12:29;12.10;99.90
54680;DHT22;40578;53.178;5.846;2022-10-16T06:14:55;12.50;99.90
54680;DHT22;40578;53.178;5.846;2022-10-16T06:17:20;12.40;99.90
54680;DHT22;40578;53.178;5.846;2022-10-16T06:19:46;12.10;99.90
54680;DHT22;40578;53.178;5.846;2022-10-16T06:22:11;12.10;99.90
54680;DHT22;40578;53.178;5.846;2022-10-16T06:24:37;12.90;99.90
54680;DHT22;40578;53.178;5.846;2022-10-16T06:27:04;12.50;99.90
54680;DHT22;40578;53.178;5.846;2022-10-16T06:29:30;12.10;99.90
54680;DHT22;40578;53.178;5.846;2022-10-16T06:31:55;12.30;99.90
54680;DHT22;40578;53.178;5.846;2022-10-16T06:34:21;12.10;99.90
54680;DHT22;40578;53.178;5.846;2022-10-16T06:36:47;12.60;99.90
54680;DHT22;40578;53.178;5.846;2022-10-16T06:39:12;12.70;99.90
54680;DHT22;40578;53.178;5.846;2022-10-16T06:41:38;12.20;99.90
54680;DHT22;40578;53.178;5.846;2022-10-16T06:44:07;12.50;99.90
54680;DHT22;40578;53.178;5.846;2022-10-16T06:46:34;12.70;99.90
54680;DHT22;40578;53.178;5.846;2022-10-16T06:48:59;12.30;99.90
54680;DHT22;40578;53.178;5.846;2022-10-16T06:51:25;12.20;99.90
54680;DHT22;40578;53.178;5.846;2022-10-16T06:53:52;12.20;99.90
54680;DHT22;40578;53.178;5.846;2022-10-16T06:56:27;12.30;99.90
54680;DHT22;40578;53.178;5.846;2022-10-16T06:58:55;12.40;99.90
54680;DHT22;40578;53.178;5.846;2022-10-16T07:01:22;12.20;99.90
54680;DHT22;40578;53.178;5.846;2022-10-16T07:03:49;12.60;99.90
54680;DHT22;40578;53.178;5.846;2022-10-16T07:06:17;12.20;99.90
54680;DHT22;40578;53.178;5.846;2022-10-16T07:08:44;12.20;99.90
54680;DHT22;40578;53.178;5.846;2022-10-16T07:11:14;12.20;99.90
54680;DHT22;40578;53.178;5.846;2022-10-16T07:13:41;13.80;99.90
54680;DHT22;40578;53.178;5.846;2022-10-16T07:16:08;12.30;99.90
54680;DHT22;40578;53.178;5.846;2022-10-16T07:18:35;12.20;99.90
54680;DHT22;40578;53.178;5.846;2022-10-16T07:21:13;12.50;99.90
54680;DHT22;40578;53.178;5.846;2022-10-16T07:23:40;12.60;99.90
54680;DHT22;40578;53.178;5.846;2022-10-16T07:26:06;12.70;99.90
54680;DHT22;40578;53.178;5.846;2022-10-16T07:28:33;12.80;99.90
54680;DHT22;40578;53.178;5.846;2022-10-16T07:31:03;12.10;99.90
54680;DHT22;40578;53.178;5.846;2022-10-16T07:33:30;12.80;99.90
54680;DHT22;40578;53.178;5.846;2022-10-16T07:35:56;12.60;99.90
54680;DHT22;40578;53.178;5.846;2022-10-16T07:38:22;12.70;99.90
54680;DHT22;40578;53.178;5.846;2022-10-16T07:40:48;12.30;99.90
54680;DHT22;40578;53.178;5.846;2022-10-16T07:43:20;12.60;99.90
54680;DHT22;40578;53.178;5.846;2022-10-16T07:45:48;12.80;99.90
54680;DHT22;40578;53.178;5.846;2022-10-16T07:48:17;12.30;99.90
54680;DHT22;40578;53.178;5.846;2022-10-16T07:50:43;13.00;99.90
54680;DHT22;40578;53.178;5.846;2022-10-16T07:53:09;12.90;99.90
54680;DHT22;40578;53.178;5.846;2022-10-16T07:55:35;12.60;99.90
54680;DHT22;40578;53.178;5.846;2022-10-16T07:58:01;12.70;99.90
54680;DHT22;40578;53.178;5.846;2022-10-16T08:00:27;12.60;99.90
54680;DHT22;40578;53.178;5.846;2022-10-16T08:02:52;13.10;99.90
54680;DHT22;40578;53.178;5.846;2022-10-16T08:05:18;13.20;99.90
54680;DHT22;40578;53.178;5.846;2022-10-16T08:07:48;12.70;99.90
54680;DHT22;40578;53.178;5.846;2022-10-16T08:10:17;13.10;99.90
54680;DHT22;40578;53.178;5.846;2022-10-16T08:12:43;13.30;99.90
54680;DHT22;40578;53.178;5.846;2022-10-16T08:15:09;13.00;99.90
54680;DHT22;40578;53.178;5.846;2022-10-16T08:17:35;12.70;99.90
54680;DHT22;40578;53.178;5.846;2022-10-16T08:20:00;13.00;99.90
54680;DHT22;40578;53.178;5.846;2022-10-16T08:22:27;12.70;99.90
54680;DHT22;40578;53.178;5.846;2022-10-16T08:24:52;12.90;99.90
54680;DHT22;40578;53.178;5.846;2022-10-16T08:27:18;12.70;99.90
54680;DHT22;40578;53.178;5.846;2022-10-16T08:29:44;12.90;99.90
54680;DHT22;40578;53.178;5.846;2022-10-16T08:32:09;12.90;99.90
54680;DHT22;40578;53.178;5.846;2022-10-16T08:34:35;12.80;99.90
54680;DHT22;40578;53.178;5.846;2022-10-16T08:37:01;12.80;99.90
54680;DHT22;40578;53.178;5.846;2022-10-16T08:39:27;12.90;99.90
54680;DHT22;40578;53.178;5.846;2022-10-16T08:44:28;13.60;99.90
54680;DHT22;40578;53.178;5.846;2022-10-16T08:47:13;13.60;99.90
54680;DHT22;40578;53.178;5.846;2022-10-16T08:49:42;13.70;99.90
54680;DHT22;40578;53.178;5.846;2022-10-16T08:52:15;13.70;99.90
54680;DHT22;40578;53.178;5.846;2022-10-16T08:54:51;13.90;99.90
54680;DHT22;40578;53.178;5.846;2022-10-16T08:57:21;13.30;99.90
54680;DHT22;40578;53.178;5.846;2022-10-16T08:59:47;13.50;99.90
54680;DHT22;40578;53.178;5.846;2022-10-16T09:09:00;13.60;99.90
54680;DHT22;40578;53.178;5.846;2022-10-16T09:14:03;14.20;99.90
54680;DHT22;40578;53.178;5.846;2022-10-16T09:16:36;13.90;99.90
54680;DHT22;40578;53.178;5.846;2022-10-16T09:19:27;14.00;99.90
54680;DHT22;40578;53.178;5.846;2022-10-16T09:21:54;14.10;99.90
54680;DHT22;40578;53.178;5.846;2022-10-16T09:24:24;14.10;99.90
54680;DHT22;40578;53.178;5.846;2022-10-16T09:26:51;14.40;99.90
54680;DHT22;40578;53.178;5.846;2022-10-16T09:29:18;14.40;99.90
54680;DHT22;40578;53.178;5.846;2022-10-16T09:31:46;14.10;99.90
54680;DHT22;40578;53.178;5.846;2022-10-16T09:34:33;14.50;99.90
54680;DHT22;40578;53.178;5.846;2022-10-16T09:37:01;14.60;99.90
54680;DHT22;40578;53.178;5.846;2022-10-16T09:39:28;14.40;99.90
54680;DHT22;40578;53.178;5.846;2022-10-16T09:41:54;14.40;99.90
54680;DHT22;40578;53.178;5.846;2022-10-16T09:44:22;14.40;99.90
54680;DHT22;40578;53.178;5.846;2022-10-16T09:46:49;14.30;99.90
54680;DHT22;40578;53.178;5.846;2022-10-16T09:49:24;14.50;99.90
54680;DHT22;40578;53.178;5.846;2022-10-16T09:51:51;14.10;99.90
54680;DHT22;40578;53.178;5.846;2022-10-16T09:54:19;14.20;99.90
54680;DHT22;40578;53.178;5.846;2022-10-16T09:56:46;14.20;99.90
54680;DHT22;40578;53.178;5.846;2022-10-16T09:59:15;14.40;99.90
54680;DHT22;40578;53.178;5.846;2022-10-16T10:01:47;14.30;99.90
54680;DHT22;40578;53.178;5.846;2022-10-16T10:04:13;14.40;99.90
54680;DHT22;40578;53.178;5.846;2022-10-16T10:06:53;14.70;99.90
54680;DHT22;40578;53.178;5.846;2022-10-16T10:09:37;15.00;99.90
54680;DHT22;40578;53.178;5.846;2022-10-16T10:12:05;15.00;99.90
54680;DHT22;40578;53.178;5.846;2022-10-16T10:14:39;15.00;99.90
54680;DHT22;40578;53.178;5.846;2022-10-16T10:19:49;15.30;99.90
54680;DHT22;40578;53.178;5.846;2022-10-16T10:22:41;15.20;41.10
54680;DHT22;40578;53.178;5.846;2022-10-16T10:30:37;15.00;1.00
54680;DHT22;40578;53.178;5.846;2022-10-16T10:38:50;15.10;99.90
54680;DHT22;40578;53.178;5.846;2022-10-16T10:44:03;15.10;29.80
54680;DHT22;40578;53.178;5.846;2022-10-16T10:49:20;15.50;99.90
54680;DHT22;40578;53.178;5.846;2022-10-16T10:55:01;15.20;99.90
54680;DHT22;40578;53.178;5.846;2022-10-16T11:03:29;15.50;1.00
54680;DHT22;40578;53.178;5.846;2022-10-16T11:06:12;15.50;1.00
54680;DHT22;40578;53.178;5.846;2022-10-16T11:08:49;15.50;37.70
54680;DHT22;40578;53.178;5.846;2022-10-16T11:11:43;15.50;95.90
54680;DHT22;40578;53.178;5.846;2022-10-16T11:14:20;15.50;99.90
54680;DHT22;40578;53.178;5.846;2022-10-16T11:16:56;15.60;99.90
54680;DHT22;40578;53.178;5.846;2022-10-16T11:22:05;15.60;99.90
54680;DHT22;40578;53.178;5.846;2022-10-16T11:27:19;15.70;99.90
54680;DHT22;40578;53.178;5.846;2022-10-16T11:30:00;15.90;11.30
54680;DHT22;40578;53.178;5.846;2022-10-16T11:32:35;15.80;1.00
54680;DHT22;40578;53.178;5.846;2022-10-16T11:38:19;15.60;99.90
54680;DHT22;40578;53.178;5.846;2022-10-16T11:40:53;15.60;99.90
54680;DHT22;40578;53.178;5.846;2022-10-16T11:43:33;15.80;1.00
54680;DHT22;40578;53.178;5.846;2022-10-16T11:46:12;15.70;99.90
54680;DHT22;40578;53.178;5.846;2022-10-16T11:48:46;15.80;99.90
54680;DHT22;40578;53.178;5.846;2022-10-16T11:51:39;15.80;99.90
54680;DHT22;40578;53.178;5.846;2022-10-16T11:56:59;15.70;99.90
54680;DHT22;40578;53.178;5.846;2022-10-16T11:59:47;15.70;99.90
54680;DHT22;40578;53.178;5.846;2022-10-16T12:05:09;15.70;99.90
54680;DHT22;40578;53.178;5.846;2022-10-16T12:07:50;15.80;99.90
54680;DHT22;40578;53.178;5.846;2022-10-16T12:10:24;15.90;99.90
54680;DHT22;40578;53.178;5.846;2022-10-16T12:12:51;15.90;99.90
54680;DHT22;40578;53.178;5.846;2022-10-16T12:15:26;16.00;99.90
54680;DHT22;40578;53.178;5.846;2022-10-16T12:17:52;15.90;99.90
54680;DHT22;40578;53.178;5.846;2022-10-16T12:20:30;16.00;99.90
54680;DHT22;40578;53.178;5.846;2022-10-16T12:23:02;16.00;99.90
54680;DHT22;40578;53.178;5.846;2022-10-16T12:28:04;15.90;99.90
54680;DHT22;40578;53.178;5.846;2022-10-16T12:30:35;16.00;99.90
54680;DHT22;40578;53.178;5.846;2022-10-16T12:33:06;16.00;99.90
54680;DHT22;40578;53.178;5.846;2022-10-16T12:35:45;16.10;99.90
54680;DHT22;40578;53.178;5.846;2022-10-16T12:38:31;16.10;99.90
54680;DHT22;40578;53.178;5.846;2022-10-16T12:41:06;16.10;99.90
54680;DHT22;40578;53.178;5.846;2022-10-16T12:43:40;16.10;99.90
54680;DHT22;40578;53.178;5.846;2022-10-16T12:48:36;16.00;99.90
54680;DHT22;40578;53.178;5.846;2022-10-16T12:51:21;16.00;99.90
54680;DHT22;40578;53.178;5.846;2022-10-16T12:54:17;15.80;99.90
54680;DHT22;40578;53.178;5.846;2022-10-16T13:08:33;15.60;99.90
54680;DHT22;40578;53.178;5.846;2022-10-16T13:15:57;15.50;99.90
54680;DHT22;40578;53.178;5.846;2022-10-16T13:18:48;15.50;99.90
54680;DHT22;40578;53.178;5.846;2022-10-16T13:24:33;15.60;99.90
54680;DHT22;40578;53.178;5.846;2022-10-16T13:29:35;15.70;99.90
54680;DHT22;40578;53.178;5.846;2022-10-16T13:32:06;15.90;99.90
54680;DHT22;40578;53.178;5.846;2022-10-16T13:34:33;15.50;99.90
54680;DHT22;40578;53.178;5.846;2022-10-16T13:37:17;15.50;99.90
54680;DHT22;40578;53.178;5.846;2022-10-16T13:39:42;15.50;99.90
54680;DHT22;40578;53.178;5.846;2022-10-16T13:42:22;15.50;99.90
54680;DHT22;40578;53.178;5.846;2022-10-16T13:44:50;15.70;99.90
54680;DHT22;40578;53.178;5.846;2022-10-16T13:47:28;15.50;99.90
54680;DHT22;40578;53.178;5.846;2022-10-16T13:50:00;15.50;99.90
54680;DHT22;40578;53.178;5.846;2022-10-16T13:52:26;15.50;99.90
54680;DHT22;40578;53.178;5.846;2022-10-16T13:54:52;15.50;99.90
54680;DHT22;40578;53.178;5.846;2022-10-16T13:57:18;15.50;99.90
54680;DHT22;40578;53.178;5.846;2022-10-16T13:59:47;15.40;99.90
54680;DHT22;40578;53.178;5.846;2022-10-16T14:02:25;15.30;99.90
54680;DHT22;40578;53.178;5.846;2022-10-16T14:04:52;15.30;99.90
54680;DHT22;40578;53.178;5.846;2022-10-16T14:07:29;15.40;99.90
54680;DHT22;40578;53.178;5.846;2022-10-16T14:10:03;15.40;99.90
54680;DHT22;40578;53.178;5.846;2022-10-16T14:12:30;15.50;99.90
54680;DHT22;40578;53.178;5.846;2022-10-16T14:14:57;15.50;99.90
54680;DHT22;40578;53.178;5.846;2022-10-16T14:17:26;15.50;99.90
54680;DHT22;40578;53.178;5.846;2022-10-16T14:19:55;15.50;99.90
54680;DHT22;40578;53.178;5.846;2022-10-16T14:22:42;15.70;99.90
54680;DHT22;40578;53.178;5.846;2022-10-16T14:25:23;15.50;94.80
54680;DHT22;40578;53.178;5.846;2022-10-16T14:30:25;15.50;44.30
54680;DHT22;40578;53.178;5.846;2022-10-16T14:38:00;15.50;99.90
54680;DHT22;40578;53.178;5.846;2022-10-16T14:40:29;15.50;11.40
54680;DHT22;40578;53.178;5.846;2022-10-16T14:42:55;15.30;99.90
54680;DHT22;40578;53.178;5.846;2022-10-16T14:45:24;15.20;87.20
54680;DHT22;40578;53.178;5.846;2022-10-16T14:48:03;15.10;99.90
54680;DHT22;40578;53.178;5.846;2022-10-16T14:50:31;15.10;99.90
54680;DHT22;40578;53.178;5.846;2022-10-16T14:52:57;15.00;99.90
54680;DHT22;40578;53.178;5.846;2022-10-16T14:55:23;14.90;99.90
54680;DHT22;40578;53.178;5.846;2022-10-16T14:57:50;14.90;99.90
54680;DHT22;40578;53.178;5.846;2022-10-16T15:00:23;14.80;99.90
54680;DHT22;40578;53.178;5.846;2022-10-16T15:02:52;14.80;99.90
54680;DHT22;40578;53.178;5.846;2022-10-16T15:05:26;14.70;99.90
54680;DHT22;40578;53.178;5.846;2022-10-16T15:07:55;14.60;99.90
54680;DHT22;40578;53.178;5.846;2022-10-16T15:10:24;14.60;99.90
54680;DHT22;40578;53.178;5.846;2022-10-16T15:12:51;14.60;99.90
54680;DHT22;40578;53.178;5.846;2022-10-16T15:15:37;14.50;99.90
54680;DHT22;40578;53.178;5.846;2022-10-16T15:18:04;14.50;1.00
54680;DHT22;40578;53.178;5.846;2022-10-16T15:20:32;14.50;1.00
54680;DHT22;40578;53.178;5.846;2022-10-16T15:23:20;14.50;1.00
54680;DHT22;40578;53.178;5.846;2022-10-16T15:25:51;14.40;1.00
54680;DHT22;40578;53.178;5.846;2022-10-16T15:28:20;14.40;1.00
54680;DHT22;40578;53.178;5.846;2022-10-16T15:30:50;14.20;1.00
54680;DHT22;40578;53.178;5.846;2022-10-16T15:33:17;14.20;51.20
54680;DHT22;40578;53.178;5.846;2022-10-16T15:35:47;14.20;92.60
54680;DHT22;40578;53.178;5.846;2022-10-16T15:38:13;14.10;99.80
54680;DHT22;40578;53.178;5.846;2022-10-16T15:40:40;14.10;99.90
54680;DHT22;40578;53.178;5.846;2022-10-16T15:43:07;14.00;99.90
54680;DHT22;40578;53.178;5.846;2022-10-16T15:45:36;13.90;99.90
54680;DHT22;40578;53.178;5.846;2022-10-16T15:48:11;13.90;99.90
54680;DHT22;40578;53.178;5.846;2022-10-16T15:50:40;13.80;99.90
54680;DHT22;40578;53.178;5.846;2022-10-16T15:53:06;13.70;99.90
54680;DHT22;40578;53.178;5.846;2022-10-16T15:55:34;13.70;99.90
54680;DHT22;40578;53.178;5.846;2022-10-16T15:58:03;13.70;99.90
54680;DHT22;40578;53.178;5.846;2022-10-16T16:00:29;13.60;99.90
54680;DHT22;40578;53.178;5.846;2022-10-16T16:02:55;13.60;99.90
54680;DHT22;40578;53.178;5.846;2022-10-16T16:05:21;13.50;99.90
54680;DHT22;40578;53.178;5.846;2022-10-16T16:07:48;13.50;99.90
54680;DHT22;40578;53.178;5.846;2022-10-16T16:10:14;13.40;97.80
54680;DHT22;40578;53.178;5.846;2022-10-16T16:12:39;13.30;94.50
54680;DHT22;40578;53.178;5.846;2022-10-16T16:15:06;13.20;99.90
54680;DHT22;40578;53.178;5.846;2022-10-16T16:17:36;13.10;99.90
54680;DHT22;40578;53.178;5.846;2022-10-16T16:20:05;13.20;99.90
54680;DHT22;40578;53.178;5.846;2022-10-16T16:22:38;13.10;99.90
54680;DHT22;40578;53.178;5.846;2022-10-16T16:25:08;12.90;99.90
54680;DHT22;40578;53.178;5.846;2022-10-16T16:27:34;13.00;99.90
54680;DHT22;40578;53.178;5.846;2022-10-16T16:30:01;12.80;99.90
54680;DHT22;40578;53.178;5.846;2022-10-16T16:32:28;12.90;99.90
54680;DHT22;40578;53.178;5.846;2022-10-16T16:34:54;13.00;99.90
54680;DHT22;40578;53.178;5.846;2022-10-16T16:37:20;12.70;99.90
54680;DHT22;40578;53.178;5.846;2022-10-16T16:39:45;12.90;99.90
54680;DHT22;40578;53.178;5.846;2022-10-16T16:42:11;12.80;99.90
54680;DHT22;40578;53.178;5.846;2022-10-16T16:44:37;12.70;99.90
54680;DHT22;40578;53.178;5.846;2022-10-16T16:47:04;12.60;99.90
54680;DHT22;40578;53.178;5.846;2022-10-16T16:49:29;12.80;99.90
54680;DHT22;40578;53.178;5.846;2022-10-16T16:51:55;12.70;99.90
54680;DHT22;40578;53.178;5.846;2022-10-16T16:54:20;12.60;99.90
54680;DHT22;40578;53.178;5.846;2022-10-16T16:56:46;12.40;99.90
54680;DHT22;40578;53.178;5.846;2022-10-16T16:59:18;12.40;99.90
54680;DHT22;40578;53.178;5.846;2022-10-16T17:01:45;12.20;99.90
54680;DHT22;40578;53.178;5.846;2022-10-16T17:04:11;12.20;99.90
54680;DHT22;40578;53.178;5.846;2022-10-16T17:06:38;12.30;99.90
54680;DHT22;40578;53.178;5.846;2022-10-16T17:09:05;12.30;99.90
54680;DHT22;40578;53.178;5.846;2022-10-16T17:11:31;12.30;99.90
54680;DHT22;40578;53.178;5.846;2022-10-16T17:13:58;12.00;99.90
54680;DHT22;40578;53.178;5.846;2022-10-16T17:16:30;12.00;99.90
54680;DHT22;40578;53.178;5.846;2022-10-16T17:19:03;12.20;99.90
54680;DHT22;40578;53.178;5.846;2022-10-16T17:21:29;12.00;99.90
54680;DHT22;40578;53.178;5.846;2022-10-16T17:23:57;12.20;99.90
54680;DHT22;40578;53.178;5.846;2022-10-16T17:26:24;12.00;99.90